Time;durP1;ratioP1;P1;durP2;ratioP2;P2;SDS_P1;SDS_P2;PMS_P1;PMS_P2;Temp;Humidity;BMP_temperature;BMP_pressure;BME280_temperature;BME280_humidity;BME280_pressure;Samples;Min_cycle;Max_cycle;Signal;HPM_P1;HPM_P2
2022/07/23 00:00:39;;;;;;;12.18;5.82;;;;;;;15.82;89.83;101785.09;5004984;28;20053;-68
2022/07/23 00:03:05;;;;;;;9.80;5.55;;;;;;;15.78;89.98;101778.38;5003870;28;20081;-68
2022/07/23 00:05:30;;;;;;;8.68;6.63;;;;;;;15.73;90.46;101779.09;5003681;28;20058;-67
2022/07/23 00:07:55;;;;;;;8.77;5.30;;;;;;;15.73;91.05;101781.84;5002182;28;20100;-68
2022/07/23 00:10:21;;;;;;;10.80;5.88;;;;;;;15.73;91.23;101786.56;5004344;28;20029;-68
2022/07/23 00:12:46;;;;;;;8.88;5.70;;;;;;;15.67;91.32;101793.06;5004600;28;20038;-68
2022/07/23 00:15:11;;;;;;;8.13;5.57;;;;;;;15.61;91.34;101800.34;5004608;28;20468;-68
2022/07/23 00:17:37;;;;;;;10.13;5.45;;;;;;;15.54;91.88;101800.47;5000435;28;20080;-68
2022/07/23 00:20:03;;;;;;;10.07;5.45;;;;;;;15.46;91.90;101795.31;5002798;28;20465;-68
2022/07/23 00:22:29;;;;;;;8.57;5.80;;;;;;;15.52;92.03;101796.28;5003919;28;20033;-68
2022/07/23 00:24:55;;;;;;;8.50;5.63;;;;;;;15.44;91.87;101789.16;5003844;28;20033;-68
2022/07/23 00:27:20;;;;;;;8.63;6.25;;;;;;;15.38;92.09;101783.75;5003941;28;21639;-68
2022/07/23 00:29:46;;;;;;;9.73;6.03;;;;;;;15.30;92.43;101784.94;5005025;28;20029;-68
2022/07/23 00:32:11;;;;;;;11.40;6.32;;;;;;;15.22;92.31;101788.06;5003581;28;20480;-68
2022/07/23 00:34:36;;;;;;;12.15;6.50;;;;;;;15.21;93.09;101792.78;5002976;28;20053;-68
2022/07/23 00:37:01;;;;;;;10.73;6.35;;;;;;;15.19;92.92;101789.38;5003996;28;20066;-68
2022/07/23 00:39:27;;;;;;;10.43;6.47;;;;;;;15.17;93.21;101785.19;5002427;28;20018;-68
2022/07/23 00:41:52;;;;;;;10.98;5.80;;;;;;;15.13;93.24;101786.72;5002638;28;20512;-68
2022/07/23 00:44:29;;;;;;;10.45;6.28;;;;;;;15.09;93.28;101788.28;5001123;28;20033;-68
2022/07/23 00:46:57;;;;;;;13.20;6.65;;;;;;;15.05;92.85;101787.91;5001037;28;20499;-68
2022/07/23 00:49:24;;;;;;;11.27;6.38;;;;;;;15.04;92.68;101781.53;5001214;28;20129;-68
2022/07/23 00:51:50;;;;;;;11.98;6.80;;;;;;;15.05;93.23;101785.13;5004623;28;20037;-68
2022/07/23 00:54:16;;;;;;;12.75;7.00;;;;;;;15.02;92.75;101789.25;5003454;28;20488;-68
2022/07/23 00:56:46;;;;;;;10.43;6.10;;;;;;;15.05;93.28;101790.66;5006364;28;20034;-68
2022/07/23 00:59:12;;;;;;;9.85;6.60;;;;;;;15.02;92.55;101788.41;5006598;28;20076;-67
2022/07/23 01:01:37;;;;;;;11.27;6.65;;;;;;;14.95;92.26;101785.75;5012886;28;20706;-68
2022/07/23 01:04:02;;;;;;;10.88;6.50;;;;;;;14.91;92.80;101778.16;5021052;28;20069;-68
2022/07/23 01:06:28;;;;;;;11.00;7.50;;;;;;;14.87;93.33;101776.94;5008259;28;20041;-68
2022/07/23 01:08:55;;;;;;;13.55;7.10;;;;;;;14.82;93.47;101769.34;5006338;28;20042;-68
2022/07/23 01:11:23;;;;;;;11.85;7.85;;;;;;;14.77;93.61;101775.59;5007601;28;20014;-69
2022/07/23 01:13:48;;;;;;;11.90;7.13;;;;;;;14.79;93.63;101772.56;5005501;28;20440;-69
2022/07/23 01:16:14;;;;;;;14.38;7.18;;;;;;;14.81;93.43;101769.59;5007602;28;20075;-68
2022/07/23 01:18:39;;;;;;;14.43;6.97;;;;;;;14.83;93.74;101775.72;5005537;28;20038;-68
2022/07/23 01:21:06;;;;;;;10.35;6.93;;;;;;;14.78;93.13;101773.66;5007215;28;20049;-68
2022/07/23 01:23:31;;;;;;;10.27;6.45;;;;;;;14.72;93.39;101767.16;5007001;28;20052;-68
2022/07/23 01:25:56;;;;;;;11.02;6.03;;;;;;;14.66;93.63;101762.56;5004903;28;20037;-68
2022/07/23 01:28:22;;;;;;;9.10;6.40;;;;;;;14.64;93.50;101766.63;5004634;28;20547;-68
2022/07/23 01:30:48;;;;;;;13.10;6.68;;;;;;;14.57;93.43;101765.91;5006900;28;20544;-68
2022/07/23 01:33:13;;;;;;;9.63;6.43;;;;;;;14.47;93.62;101770.06;5005948;28;20125;-68
2022/07/23 01:35:39;;;;;;;11.15;6.35;;;;;;;14.38;93.93;101767.84;5004009;28;20037;-68
2022/07/23 01:38:04;;;;;;;8.40;6.10;;;;;;;14.32;94.17;101766.00;5006621;28;20112;-68
2022/07/23 01:40:29;;;;;;;11.13;6.80;;;;;;;14.23;94.22;101754.41;5005240;28;20172;-68
2022/07/23 01:42:55;;;;;;;8.30;6.55;;;;;;;14.22;94.65;101761.88;5006445;28;20029;-69
2022/07/23 01:45:20;;;;;;;11.35;7.03;;;;;;;14.18;94.61;101765.34;5005314;28;20480;-68
2022/07/23 01:47:46;;;;;;;10.13;6.40;;;;;;;14.10;94.77;101765.66;5004626;28;20125;-68
2022/07/23 01:50:12;;;;;;;8.80;6.40;;;;;;;14.09;95.79;101763.94;5003043;28;20034;-68
2022/07/23 01:52:37;;;;;;;10.13;5.63;;;;;;;14.07;95.29;101755.06;5004461;28;20033;-68
2022/07/23 01:55:03;;;;;;;9.02;6.53;;;;;;;14.06;95.49;101765.28;5006725;28;21364;-68
2022/07/23 01:57:28;;;;;;;10.60;5.90;;;;;;;14.11;96.25;101759.06;5006358;28;20052;-68
2022/07/23 01:59:54;;;;;;;13.45;7.00;;;;;;;14.01;95.61;101765.13;5004904;28;20025;-68
2022/07/23 02:02:19;;;;;;;11.73;5.85;;;;;;;13.98;95.50;101760.06;5004639;28;20066;-69
2022/07/23 02:04:45;;;;;;;9.68;6.53;;;;;;;13.95;96.01;101761.38;5007322;28;20037;-68
2022/07/23 02:07:10;;;;;;;8.18;6.00;;;;;;;13.89;95.63;101759.53;5004843;28;20048;-68
2022/07/23 02:09:35;;;;;;;10.82;6.28;;;;;;;13.85;95.63;101758.31;5005276;28;20057;-68
2022/07/23 02:12:01;;;;;;;9.75;6.30;;;;;;;13.75;95.25;101755.25;5006472;28;20373;-68
2022/07/23 02:14:27;;;;;;;9.82;6.20;;;;;;;13.68;95.36;101759.97;5005222;28;20064;-68
2022/07/23 02:16:52;;;;;;;11.65;6.55;;;;;;;13.65;95.98;101746.66;5005643;28;20049;-69
2022/07/23 02:19:17;;;;;;;11.00;6.45;;;;;;;13.67;96.23;101742.56;5005169;28;20116;-68
2022/07/23 02:21:43;;;;;;;10.77;6.53;;;;;;;13.61;96.05;101742.66;5005958;28;20065;-68
2022/07/23 02:24:09;;;;;;;10.88;5.90;;;;;;;13.57;96.09;101753.28;5005665;28;20030;-68
2022/07/23 02:26:34;;;;;;;9.88;6.35;;;;;;;13.54;96.42;101747.41;5006374;28;20037;-68
2022/07/23 02:29:01;;;;;;;11.15;6.35;;;;;;;13.53;96.24;101753.97;5004438;28;20104;-68
2022/07/23 02:31:28;;;;;;;11.63;6.88;;;;;;;13.55;97.01;101754.63;5006511;28;20046;-69
2022/07/23 02:33:54;;;;;;;10.05;6.88;;;;;;;13.60;97.11;101757.53;5004869;28;20026;-69
2022/07/23 02:36:19;;;;;;;13.52;7.38;;;;;;;13.65;96.72;101749.41;5006044;28;20026;-69
2022/07/23 02:38:44;;;;;;;11.70;7.43;;;;;;;13.66;96.43;101749.16;5005751;28;20030;-69
2022/07/23 02:41:10;;;;;;;13.90;7.13;;;;;;;13.67;96.54;101752.78;5005046;28;20405;-68
2022/07/23 02:43:35;;;;;;;9.88;7.22;;;;;;;13.69;96.54;101761.69;5005394;28;20026;-68
2022/07/23 02:46:00;;;;;;;10.02;6.60;;;;;;;13.66;95.78;101754.69;5004101;28;20088;-69
2022/07/23 02:48:26;;;;;;;10.02;7.43;;;;;;;13.62;96.43;101758.13;5003726;28;20065;-68
2022/07/23 02:50:52;;;;;;;12.23;7.55;;;;;;;13.60;96.46;101761.13;5004534;28;20022;-69
2022/07/23 02:53:17;;;;;;;11.35;7.70;;;;;;;13.61;96.51;101767.50;5005574;28;20034;-68
2022/07/23 02:55:43;;;;;;;12.02;7.78;;;;;;;13.56;95.97;101761.81;5006021;28;20167;-68
2022/07/23 02:58:08;;;;;;;9.82;7.43;;;;;;;13.52;95.75;101764.19;5003456;28;20022;-68
2022/07/23 03:00:33;;;;;;;10.93;7.73;;;;;;;13.48;96.14;101763.81;5003761;28;20029;-69
2022/07/23 03:02:58;;;;;;;12.23;7.38;;;;;;;13.49;95.85;101767.41;5002006;28;20308;-69
2022/07/23 03:05:24;;;;;;;11.07;7.15;;;;;;;13.40;95.89;101771.53;5005231;28;20109;-69
2022/07/23 03:07:49;;;;;;;10.40;7.18;;;;;;;13.37;96.28;101764.53;5002342;28;20041;-69
2022/07/23 03:10:14;;;;;;;11.00;7.53;;;;;;;13.38;96.14;101773.66;4993619;28;20381;-69
2022/07/23 03:12:39;;;;;;;12.63;7.63;;;;;;;13.40;96.41;101771.53;5003507;28;20040;-69
2022/07/23 03:15:05;;;;;;;10.63;7.70;;;;;;;13.32;96.20;101775.41;5005306;28;20552;-69
2022/07/23 03:17:31;;;;;;;11.32;8.75;;;;;;;13.33;96.68;101777.13;5003227;28;20037;-69
2022/07/23 03:19:56;;;;;;;13.52;9.13;;;;;;;13.31;96.95;101782.00;5003889;28;20562;-69
2022/07/23 03:22:21;;;;;;;15.32;10.63;;;;;;;13.33;97.18;101777.13;5005008;28;20067;-69
2022/07/23 03:24:55;;;;;;;12.38;8.90;;;;;;;13.35;96.46;101774.97;5003821;28;20029;-68
2022/07/23 03:27:22;;;;;;;15.10;10.18;;;;;;;13.32;96.48;101780.91;5004657;28;20030;-69
2022/07/23 03:29:48;;;;;;;14.00;10.50;;;;;;;13.34;96.69;101777.97;5002794;28;20037;-69
2022/07/23 03:32:13;;;;;;;14.57;10.52;;;;;;;13.31;96.79;101781.16;5006255;28;20030;-68
2022/07/23 03:34:38;;;;;;;13.50;11.07;;;;;;;13.28;96.76;101778.84;5005472;28;20101;-69
2022/07/23 03:37:04;;;;;;;14.43;10.00;;;;;;;13.26;96.38;101775.47;5004958;28;20536;-69
2022/07/23 03:39:29;;;;;;;13.48;10.98;;;;;;;13.21;96.65;101778.88;5003880;28;20029;-69
2022/07/23 03:41:55;;;;;;;16.63;10.98;;;;;;;13.19;96.74;101781.03;5004816;28;20534;-69
2022/07/23 03:44:20;;;;;;;13.23;10.07;;;;;;;13.17;96.90;101783.16;5004141;28;20032;-69
2022/07/23 03:46:45;;;;;;;13.38;9.98;;;;;;;13.16;96.78;101787.81;5002890;28;20062;-68
2022/07/23 03:49:11;;;;;;;14.48;10.82;;;;;;;13.15;96.97;101775.09;5003129;28;20050;-68
2022/07/23 03:51:36;;;;;;;14.25;10.65;;;;;;;13.17;96.91;101777.63;5003846;28;20033;-67
2022/07/23 03:54:01;;;;;;;16.20;11.93;;;;;;;13.14;97.28;101778.94;5002438;28;20641;-69
2022/07/23 03:56:27;;;;;;;15.23;12.45;;;;;;;13.10;97.20;101783.22;5005193;28;20469;-69
2022/07/23 03:58:52;;;;;;;17.27;12.15;;;;;;;13.10;97.76;101779.59;5003024;28;20034;-69
2022/07/23 04:01:17;;;;;;;16.75;12.40;;;;;;;13.07;97.87;101782.81;5003940;28;20042;-68
2022/07/23 04:03:42;;;;;;;16.23;12.10;;;;;;;13.03;97.63;101779.69;5002830;28;20425;-69
2022/07/23 04:06:08;;;;;;;16.45;12.70;;;;;;;13.04;98.07;101783.28;5002622;28;20117;-69
2022/07/23 04:08:33;;;;;;;16.58;12.75;;;;;;;13.05;98.62;101783.03;5002303;28;20173;-68
2022/07/23 04:10:58;;;;;;;18.88;11.63;;;;;;;13.06;98.24;101789.41;5002350;28;20586;-69
2022/07/23 04:13:24;;;;;;;15.57;11.85;;;;;;;13.05;97.32;101794.06;5004219;28;20032;-69
2022/07/23 04:15:50;;;;;;;14.82;11.40;;;;;;;13.05;98.11;101796.00;5004382;28;20072;-69
2022/07/23 04:18:17;;;;;;;17.63;11.90;;;;;;;13.08;98.01;101798.31;5003116;28;20026;-69
2022/07/23 04:20:43;;;;;;;19.92;13.20;;;;;;;13.08;98.03;101795.56;5004978;28;20026;-69
2022/07/23 04:23:09;;;;;;;15.20;12.20;;;;;;;13.11;98.13;101792.31;5004628;28;20032;-69
2022/07/23 04:25:34;;;;;;;17.60;13.10;;;;;;;13.14;98.42;101791.88;5003160;28;20392;-69
2022/07/23 04:28:00;;;;;;;17.30;12.45;;;;;;;13.15;98.43;101797.16;5004385;28;20030;-69
2022/07/23 04:30:25;;;;;;;17.83;13.55;;;;;;;13.16;98.20;101798.84;5003826;28;20420;-69
2022/07/23 04:32:50;;;;;;;18.25;12.60;;;;;;;13.19;98.46;101797.56;5006435;28;20057;-69
2022/07/23 04:35:15;;;;;;;16.90;13.27;;;;;;;13.21;98.52;101800.94;5007195;28;20413;-69
2022/07/23 04:37:41;;;;;;;17.45;13.30;;;;;;;13.23;98.95;101804.38;5008409;28;20061;-69
2022/07/23 04:40:06;;;;;;;19.65;13.45;;;;;;;13.27;99.07;101800.06;5007837;28;20543;-69
2022/07/23 04:42:32;;;;;;;18.65;13.77;;;;;;;13.34;99.05;101800.88;5006855;28;20065;-68
2022/07/23 04:44:57;;;;;;;19.35;13.80;;;;;;;13.39;98.86;101812.06;5006097;28;20025;-69
2022/07/23 04:47:22;;;;;;;18.95;13.65;;;;;;;13.46;98.73;101812.84;5006216;28;20245;-69
2022/07/23 04:49:47;;;;;;;23.10;14.48;;;;;;;13.45;98.29;101810.31;5008728;28;20033;-68
2022/07/23 04:52:15;;;;;;;19.00;13.60;;;;;;;13.46;98.70;101814.75;5007614;28;20433;-68
2022/07/23 04:54:40;;;;;;;20.10;14.57;;;;;;;13.49;98.64;101817.09;5005772;28;20120;-68
2022/07/23 04:57:05;;;;;;;20.35;14.30;;;;;;;13.47;98.45;101828.34;5008261;28;20121;-68
2022/07/23 04:59:31;;;;;;;18.73;14.10;;;;;;;13.55;98.69;101823.63;5006231;28;20057;-68
2022/07/23 05:01:56;;;;;;;19.05;14.60;;;;;;;13.57;99.68;101835.25;5006477;28;20400;-68
2022/07/23 05:04:21;;;;;;;23.08;14.80;;;;;;;13.59;99.11;101820.19;5007311;28;20030;-69
2022/07/23 05:06:46;;;;;;;21.95;14.85;;;;;;;13.61;99.36;101815.25;5004150;28;20029;-68
2022/07/23 05:09:12;;;;;;;21.70;16.30;;;;;;;13.66;99.65;101820.09;5006079;28;20492;-70
2022/07/23 05:11:37;;;;;;;23.05;16.25;;;;;;;13.68;99.57;101815.19;5005198;28;21316;-69
2022/07/23 05:14:02;;;;;;;21.25;15.80;;;;;;;13.69;99.59;101825.19;5006028;28;20525;-69
2022/07/23 05:16:28;;;;;;;19.90;16.00;;;;;;;13.73;99.70;101820.88;5006763;28;20025;-70
2022/07/23 05:18:53;;;;;;;21.30;16.85;;;;;;;13.76;99.72;101826.78;5006364;28;20049;-69
2022/07/23 05:21:19;;;;;;;23.65;17.30;;;;;;;13.79;99.77;101814.47;5005458;28;20026;-69
2022/07/23 05:23:44;;;;;;;24.40;16.38;;;;;;;13.87;99.96;101829.88;5006942;28;20105;-69
2022/07/23 05:26:09;;;;;;;21.77;16.33;;;;;;;13.93;99.59;101826.19;5007175;28;20034;-69
2022/07/23 05:28:35;;;;;;;22.40;15.88;;;;;;;14.00;99.68;101835.25;5006878;28;20030;-69
2022/07/23 05:31:00;;;;;;;22.25;17.60;;;;;;;14.05;100.00;101832.66;5007180;28;20018;-69
2022/07/23 05:33:25;;;;;;;23.17;17.13;;;;;;;14.11;99.28;101840.00;5003473;28;20061;-69
2022/07/23 05:35:50;;;;;;;22.58;16.73;;;;;;;14.17;99.62;101839.09;5005498;28;20102;-70
2022/07/23 05:38:16;;;;;;;25.15;16.60;;;;;;;14.22;99.40;101838.41;5007771;28;20030;-69
2022/07/23 05:40:41;;;;;;;28.42;18.13;;;;;;;14.27;99.57;101841.31;5006060;28;20026;-69
2022/07/23 05:43:07;;;;;;;22.95;16.90;;;;;;;14.31;98.84;101844.47;5003308;28;20069;-69
2022/07/23 05:45:32;;;;;;;24.88;17.60;;;;;;;14.38;98.81;101843.28;5006386;28;20388;-69
2022/07/23 05:47:57;;;;;;;23.00;17.58;;;;;;;14.44;98.83;101841.53;5005119;28;20495;-69
2022/07/23 05:50:23;;;;;;;27.80;18.48;;;;;;;14.50;99.35;101846.19;5007094;28;20036;-69
2022/07/23 05:52:48;;;;;;;23.98;18.55;;;;;;;14.56;99.73;101855.47;5005855;28;20026;-70
2022/07/23 05:55:13;;;;;;;29.02;18.55;;;;;;;14.64;99.33;101846.81;5006429;28;20038;-69
2022/07/23 05:57:40;;;;;;;26.90;19.25;;;;;;;14.72;99.49;101855.66;5006671;28;20026;-69
2022/07/23 06:00:08;;;;;;;23.85;19.05;;;;;;;14.76;99.55;101840.28;5003125;28;20026;-68
2022/07/23 06:02:33;;;;;;;25.50;19.87;;;;;;;14.82;99.20;101855.09;5004142;28;20041;-68
2022/07/23 06:04:58;;;;;;;30.13;20.50;;;;;;;14.89;99.61;101853.06;5006773;28;20653;-69
2022/07/23 06:07:23;;;;;;;27.35;18.70;;;;;;;14.91;99.73;101861.97;5002343;28;20034;-69
2022/07/23 06:09:49;;;;;;;29.55;19.45;;;;;;;14.96;99.44;101861.28;5002922;28;20094;-69
2022/07/23 06:12:15;;;;;;;27.08;19.13;;;;;;;14.97;99.76;101861.03;5005969;28;20025;-69
2022/07/23 06:14:40;;;;;;;27.35;19.80;;;;;;;15.01;99.86;101867.78;5004538;28;20033;-69
2022/07/23 06:17:06;;;;;;;26.60;19.77;;;;;;;15.07;99.44;101866.00;5004280;28;20183;-69
2022/07/23 06:19:31;;;;;;;29.45;20.88;;;;;;;15.15;99.90;101865.66;5006394;28;20533;-69
2022/07/23 06:21:56;;;;;;;26.00;18.33;;;;;;;15.23;99.09;101859.78;5004899;28;20445;-68
2022/07/23 06:24:21;;;;;;;26.42;19.20;;;;;;;15.27;99.19;101866.53;5006144;28;20029;-69
2022/07/23 06:26:47;;;;;;;25.73;17.95;;;;;;;15.33;98.75;101870.28;5006313;28;20026;-68
2022/07/23 06:29:12;;;;;;;25.85;17.98;;;;;;;15.38;97.76;101870.41;5005840;28;20030;-68
2022/07/23 06:31:37;;;;;;;28.27;17.08;;;;;;;15.43;97.28;101872.47;5002358;28;20036;-68
2022/07/23 06:34:03;;;;;;;26.80;16.13;;;;;;;15.52;96.38;101869.13;5001404;28;20040;-68
2022/07/23 06:36:28;;;;;;;23.58;16.65;;;;;;;15.63;96.14;101880.44;5006080;28;20050;-69
2022/07/23 06:38:53;;;;;;;20.92;15.02;;;;;;;15.66;94.41;101877.22;5005125;28;20026;-69
2022/07/23 06:41:18;;;;;;;28.88;15.10;;;;;;;15.73;94.13;101875.19;5005636;28;20533;-69
2022/07/23 06:43:44;;;;;;;24.65;15.07;;;;;;;15.82;94.32;101877.34;5003905;28;20037;-69
2022/07/23 06:46:09;;;;;;;20.65;14.57;;;;;;;15.87;92.77;101878.56;5004431;28;20594;-69
2022/07/23 06:48:35;;;;;;;20.95;13.68;;;;;;;15.96;91.81;101874.31;5005434;28;20025;-69
2022/07/23 06:51:01;;;;;;;20.88;13.32;;;;;;;16.01;93.65;101874.44;5004884;28;20034;-69
2022/07/23 06:53:27;;;;;;;19.75;12.40;;;;;;;16.07;92.43;101879.03;5001811;28;20037;-69
2022/07/23 06:55:52;;;;;;;20.45;12.68;;;;;;;16.12;91.41;101868.06;5002316;28;20030;-69
2022/07/23 06:58:19;;;;;;;19.95;13.23;;;;;;;16.22;92.46;101878.50;5005107;28;20018;-69
2022/07/23 07:00:44;;;;;;;20.90;13.48;;;;;;;16.34;93.03;101882.13;5003451;28;20026;-69
2022/07/23 07:03:09;;;;;;;22.77;12.70;;;;;;;16.40;90.98;101877.53;5001054;28;20060;-69
2022/07/23 07:05:35;;;;;;;19.65;13.65;;;;;;;16.48;89.77;101877.16;5003588;28;20317;-69
2022/07/23 07:08:00;;;;;;;20.40;14.10;;;;;;;16.55;89.59;101881.47;5005244;28;20492;-69
2022/07/23 07:10:26;;;;;;;17.50;11.77;;;;;;;16.65;87.64;101878.06;5004647;28;20053;-69
2022/07/23 07:12:51;;;;;;;16.63;12.45;;;;;;;16.73;88.38;101874.13;5000232;28;20033;-69
2022/07/23 07:15:16;;;;;;;15.82;11.05;;;;;;;16.83;88.53;101888.19;5004179;28;20034;-69
2022/07/23 07:17:42;;;;;;;18.35;11.93;;;;;;;16.91;86.59;101873.91;5001574;28;20034;-69
2022/07/23 07:20:08;;;;;;;14.73;9.50;;;;;;;17.02;86.40;101877.72;5003817;28;20112;-69
2022/07/23 07:22:33;;;;;;;14.93;9.48;;;;;;;17.08;85.40;101869.25;5004520;28;20029;-69
2022/07/23 07:24:58;;;;;;;17.15;10.25;;;;;;;17.20;84.58;101868.34;5003300;28;20388;-69
2022/07/23 07:27:24;;;;;;;16.17;9.93;;;;;;;17.27;83.01;101867.06;5003436;28;20044;-70
2022/07/23 07:29:49;;;;;;;14.32;8.40;;;;;;;17.35;80.72;101866.66;5003946;28;20076;-69
2022/07/23 07:32:14;;;;;;;16.55;9.15;;;;;;;17.63;82.06;101874.06;5002420;28;20105;-69
2022/07/23 07:34:39;;;;;;;14.18;8.75;;;;;;;17.97;78.14;101876.84;5013229;28;20389;-69
2022/07/23 07:37:05;;;;;;;16.23;9.15;;;;;;;18.42;76.91;101879.44;5005459;28;20026;-69
2022/07/23 07:39:30;;;;;;;13.85;8.00;;;;;;;19.46;74.26;101877.53;5005016;28;20513;-69
2022/07/23 07:41:55;;;;;;;14.88;8.20;;;;;;;20.24;70.22;101886.22;5003281;28;20619;-69
2022/07/23 07:44:20;;;;;;;13.95;7.80;;;;;;;20.70;66.66;101892.06;5003404;28;20113;-69
2022/07/23 07:46:46;;;;;;;14.80;8.20;;;;;;;20.88;65.41;101880.41;5004014;28;20036;-68
2022/07/23 07:49:11;;;;;;;15.15;8.27;;;;;;;20.49;67.57;101879.97;5004163;28;20087;-69
2022/07/23 07:51:36;;;;;;;13.25;6.95;;;;;;;20.11;65.80;101878.34;5003482;28;20558;-69
2022/07/23 07:54:01;;;;;;;13.10;7.95;;;;;;;19.73;72.61;101882.28;5004593;28;20121;-69
2022/07/23 07:56:27;;;;;;;11.52;7.10;;;;;;;19.40;68.79;101882.22;5004360;28;20032;-69
2022/07/23 07:58:53;;;;;;;11.07;6.18;;;;;;;19.24;69.73;101882.34;5000758;28;20548;-69
2022/07/23 08:01:19;;;;;;;13.65;7.28;;;;;;;18.97;67.32;101883.19;5003179;28;20121;-69
2022/07/23 08:03:45;;;;;;;13.73;8.30;;;;;;;18.82;69.56;101881.09;5004326;28;20080;-69
2022/07/23 08:06:10;;;;;;;12.38;8.00;;;;;;;18.78;71.08;101885.47;5008100;28;20440;-69
2022/07/23 08:08:35;;;;;;;11.43;7.22;;;;;;;18.80;73.06;101888.84;5007594;28;20535;-69
2022/07/23 08:11:00;;;;;;;14.20;6.95;;;;;;;18.82;73.89;101888.59;5007974;28;20044;-68
2022/07/23 08:13:26;;;;;;;13.10;7.72;;;;;;;18.76;70.24;101889.66;5006802;28;20030;-69
2022/07/23 08:15:52;;;;;;;12.45;7.72;;;;;;;18.75;70.83;101888.78;5007553;28;20121;-69
2022/07/23 08:18:18;;;;;;;14.15;8.23;;;;;;;18.75;70.23;101899.06;5007386;28;20057;-69
2022/07/23 08:20:43;;;;;;;13.85;7.65;;;;;;;18.80;71.84;101888.00;5008399;28;20569;-68
2022/07/23 08:23:09;;;;;;;12.60;8.93;;;;;;;18.79;69.71;101895.50;5008029;28;20479;-68
2022/07/23 08:25:39;;;;;;;16.38;8.80;;;;;;;18.88;69.72;101905.09;5006784;28;20026;-69
2022/07/23 08:28:07;;;;;;;14.57;8.48;;;;;;;19.00;69.92;101907.72;5007233;28;20061;-69
2022/07/23 08:30:33;;;;;;;;;;;;;;;19.18;72.35;101912.94;5008582;28;20022;-69
2022/07/23 08:33:13;;;;;;;12.45;8.13;;;;;;;19.19;70.10;101909.03;5005664;28;19924;-69
2022/07/23 08:35:46;;;;;;;18.08;8.93;;;;;;;19.26;69.33;101903.28;5006852;28;20030;-68
2022/07/23 08:38:13;;;;;;;12.45;8.25;;;;;;;19.22;67.89;101909.63;5007640;28;20030;-69
2022/07/23 08:40:51;;;;;;;14.50;8.60;;;;;;;19.35;67.69;101915.59;5008012;28;20037;-69
2022/07/23 08:43:20;;;;;;;11.68;8.15;;;;;;;19.77;66.58;101920.50;5005788;28;20300;-68
2022/07/23 08:45:48;;;;;;;14.85;8.95;;;;;;;20.05;66.36;101918.47;5007119;28;20022;-69
2022/07/23 08:48:21;;;;;;;13.15;8.00;;;;;;;20.13;67.15;101923.56;5007780;28;20037;-68
2022/07/23 08:50:49;;;;;;;13.15;8.10;;;;;;;20.19;67.42;101923.31;5007978;28;20030;-68
2022/07/23 08:53:16;;;;;;;13.73;7.82;;;;;;;20.23;66.20;101922.78;5007549;28;20115;-68
2022/07/23 08:55:45;;;;;;;10.75;7.15;;;;;;;20.34;67.30;101925.34;5006023;28;20038;-68
2022/07/23 08:58:11;;;;;;;11.65;7.32;;;;;;;20.40;66.88;101932.63;5004605;28;20034;-69
2022/07/23 09:00:36;;;;;;;12.82;7.47;;;;;;;20.51;67.21;101929.94;5006899;28;20041;-68
2022/07/23 09:03:02;;;;;;;13.35;8.07;;;;;;;20.63;66.01;101920.25;5005955;28;20695;-68
2022/07/23 09:05:27;;;;;;;11.02;7.85;;;;;;;20.78;66.22;101918.59;5007011;28;20029;-68
2022/07/23 09:08:06;;;;;;;12.18;8.10;;;;;;;20.76;66.44;101921.69;5007359;28;20376;-69
2022/07/23 09:10:46;;;;;;;13.20;8.48;;;;;;;20.71;65.56;101916.91;5005726;28;20026;-69
2022/07/23 09:13:43;;;;;;;14.13;7.88;;;;;;;20.77;64.52;101911.34;5006801;28;20022;-68
2022/07/23 09:16:15;;;;;;;11.55;7.70;;;;;;;20.96;64.27;101912.53;5005745;28;20469;-68
2022/07/23 09:18:52;;;;;;;10.93;7.72;;;;;;;21.02;62.51;101910.59;5006927;28;20033;-68
2022/07/23 09:21:18;;;;;;;11.77;7.37;;;;;;;21.10;63.75;101905.31;5006123;28;20080;-68
2022/07/23 09:23:50;;;;;;;11.25;8.00;;;;;;;21.30;64.63;101907.34;5006892;28;20363;-68
2022/07/23 09:26:21;;;;;;;13.43;7.93;;;;;;;21.31;60.18;101899.78;5007206;28;20109;-68
2022/07/23 09:28:54;;;;;;;13.07;7.85;;;;;;;21.41;59.51;101895.06;5006715;28;20033;-68
2022/07/23 09:31:20;;;;;;;10.40;7.22;;;;;;;22.64;60.49;101883.69;5006324;28;20026;-69
2022/07/23 09:33:46;;;;;;;10.27;6.78;;;;;;;24.40;54.01;101887.41;5006070;28;20064;-68
2022/07/23 09:36:11;;;;;;;9.98;6.55;;;;;;;25.30;48.60;101905.34;5006910;28;20026;-68
2022/07/23 09:38:48;;;;;;;9.40;5.82;;;;;;;26.72;48.98;101906.75;5006497;28;20481;-68
2022/07/23 09:41:13;;;;;;;9.63;5.43;;;;;;;28.14;42.85;101902.50;5005937;28;20029;-69
2022/07/23 09:43:39;;;;;;;9.25;4.57;;;;;;;27.71;39.76;101905.03;5004017;28;20052;-68
2022/07/23 09:46:18;;;;;;;10.77;5.95;;;;;;;27.37;44.73;101910.09;5003781;28;20069;-68
2022/07/23 09:48:43;;;;;;;10.73;6.03;;;;;;;27.67;43.37;101913.28;5005598;28;20037;-68
2022/07/23 09:51:08;;;;;;;9.40;6.07;;;;;;;29.21;41.48;101919.19;5005622;28;20041;-69
2022/07/23 09:53:34;;;;;;;8.15;5.53;;;;;;;30.31;38.74;101923.41;5005606;28;20036;-68
2022/07/23 09:56:00;;;;;;;10.47;5.50;;;;;;;31.09;35.55;101917.34;5005835;28;20029;-69
2022/07/23 09:58:26;;;;;;;10.48;6.30;;;;;;;32.39;33.32;101918.16;5005643;28;20281;-69
2022/07/23 10:00:53;;;;;;;13.23;5.93;;;;;;;32.82;32.49;101916.75;5004940;28;20081;-69
2022/07/23 10:03:20;;;;;;;9.85;6.07;;;;;;;32.48;31.79;101922.53;5005988;28;20100;-68
2022/07/23 10:05:46;;;;;;;10.32;6.35;;;;;;;33.02;31.04;101916.63;5006518;28;20030;-68
2022/07/23 10:08:12;;;;;;;8.45;5.82;;;;;;;33.44;32.67;101907.75;5003308;28;20056;-68
2022/07/23 10:10:41;;;;;;;14.05;5.45;;;;;;;34.11;32.98;101912.91;5006298;28;20026;-68
2022/07/23 10:15:35;;;;;;;9.98;5.45;;;;;;;32.60;32.06;101909.53;5004107;28;20049;-68
2022/07/23 10:18:01;;;;;;;11.25;5.50;;;;;;;33.00;35.23;101909.63;5004577;28;20488;-68
2022/07/23 10:20:26;;;;;;;9.90;6.03;;;;;;;32.76;32.93;101907.63;5021014;28;20329;-68
2022/07/23 10:22:59;;;;;;;10.65;5.88;;;;;;;31.72;33.60;101901.13;5002964;28;20022;-69
2022/07/23 10:25:33;;;;;;;10.00;5.60;;;;;;;32.20;33.64;101907.34;5005437;28;20029;-69
2022/07/23 10:28:11;;;;;;;9.73;5.32;;;;;;;32.63;34.20;101908.81;5004452;28;20125;-69
2022/07/23 10:30:45;;;;;;;8.60;5.88;;;;;;;32.29;33.30;101913.75;5005235;28;20433;-69
2022/07/23 10:33:32;;;;;;;10.95;5.80;;;;;;;33.74;34.72;101916.78;5005344;28;20069;-69
2022/07/23 10:36:19;;;;;;;9.55;5.00;;;;;;;34.13;31.79;101902.81;5004195;28;20037;-69
2022/07/23 10:39:05;;;;;;;10.57;6.55;;;;;;;33.89;31.38;101920.84;5005713;28;20041;-66
2022/07/23 10:41:41;;;;;;;13.00;6.00;;;;;;;34.07;31.30;101907.97;5005975;28;20048;-66
2022/07/23 10:44:22;;;;;;;8.93;5.72;;;;;;;33.78;30.81;101917.72;5004094;28;20033;-66
2022/07/23 10:49:34;;;;;;;7.60;5.05;;;;;;;34.25;31.61;101908.44;5004858;28;20066;-66
2022/07/23 10:52:23;;;;;;;8.63;5.32;;;;;;;33.88;31.78;101904.13;5004818;28;20060;-67
2022/07/23 10:54:50;;;;;;;7.70;5.30;;;;;;;33.06;31.07;101908.22;5004058;28;20037;-67
2022/07/23 10:57:17;;;;;;;8.50;4.75;;;;;;;32.27;33.71;101905.56;5005899;28;20026;-66
2022/07/23 11:00:14;;;;;;;9.57;5.43;;;;;;;31.07;35.82;101916.00;5002283;28;20827;-66
2022/07/23 11:02:41;;;;;;;8.67;5.10;;;;;;;29.99;36.37;101907.81;5004322;28;20076;-66
2022/07/23 11:05:08;;;;;;;8.70;5.30;;;;;;;29.00;41.48;101912.50;5003095;28;20120;-65
2022/07/23 11:07:34;;;;;;;7.85;4.60;;;;;;;28.23;40.50;101911.00;5004777;28;20042;-66
2022/07/23 11:09:59;;;;;;;7.93;5.32;;;;;;;27.90;42.85;101911.31;5004839;28;20161;-66
2022/07/23 11:12:27;;;;;;;7.25;3.97;;;;;;;27.80;38.53;101906.78;5004544;28;20113;-66
2022/07/23 11:15:08;;;;;;;6.00;4.25;;;;;;;27.74;39.05;101902.41;5004458;28;20034;-66
2022/07/23 11:17:36;;;;;;;5.97;3.90;;;;;;;27.56;42.24;101894.94;5003347;28;20061;-66
2022/07/23 11:20:17;;;;;;;6.90;4.53;;;;;;;27.51;41.76;101904.38;5004507;28;20024;-66